Onizuka AFB, California
Current Conditions -  °F | °C
As of 6:56 AM on Friday 31 Oct 2014 (Local Time) from KNUQ Reporting Station
Clear Clear  
Wind Chill: 62°   Ceiling: Unl
Heat Index: 62°   Visibility: 10mi
Dew Point: 56°   Wind: 6mph
Humidity: 80%   Direction: 140°SE
Pressure: 29.87"   Gusts: NA
Location:  37.3688°N, 122.035°W
Report Text: KNUQ 311356Z AUTO 14005KT 10SM CLR 17/13 A2987 RMK AO2 SLP118 T01670133 TSNO
Loading
Personal Weather Stations






























Interactive Weather Map
Tropical Storm Tracking
New forecast layout! Learn more

10-Day Weather Forecast

Advertisements
Track Severe Weather on mobile